Введите код ICAO:



Lithuania (LT) КАУНАС (EYKA)

Lithuania (LT) КАУНАС (EYKA) Архив погоды
Фактическая погодаПрогноз погоды
Дата: 23 октября 2017
Время: 14:50 UTC
Ветер: 070°-5 м/с
Направление ветра меняется от 040° до 100°
Видимость: 10 км
Облачность:   несколько (0-2 балла) на 450 м;
   значительная (6-9 баллов) на 3300 м;
Температура: +3°C
Точка   росы: -1°C
Влажность: 75 %
QNH: 1019 гПа
Прогноз получен: 23 октября 2017, в 11:01 UTC
Прогноз на 23-24 октября с 12.00 до 12.00 UTC
Ветер: 080°-4 м/с порывы до 9 м/с
Видимость: 8000 м
Облачность: рассеянная (3-5 балла) на 450 м;
   значительная (6-9 баллов) на 750 м;
 
METAR EYKA 231450Z 07010KT 040V100 9999 FEW015 BKN110 03/M01 Q1019TAF EYKA 231101Z 2312/2412 08008G18KT 8000 SCT015 BKN025

Для получения погоды по необходимым аэродромам введите 4-буквенный код ICAO и нажмите ЗАПРОС.
Коды аэродромов можно скачать здесь.
Если погода отображается, а названия аэропорта нет, сообщите нам и мы добавим его в список.
В случие обнаружения некорректной раскодировки, сообщите нам и ошибка будет исправлена.
Эта информация взята из открытых источников и должна использоваться исключительно в ознакомительных целях. Не используйте ее для планирования полетов-перелетов или для мероприятий, где возможны материальные потери или человеческие жертвы. Для этого обращайтесь в официальные структуры.